sensor_id;sensor_type;location;lat;lon;timestamp;temperature;humidity
10316;DHT22;5203;48.976;8.306;2023-02-14T00:01:36;3.90;99.90
10316;DHT22;5203;48.976;8.306;2023-02-14T00:04:02;3.90;99.90
10316;DHT22;5203;48.976;8.306;2023-02-14T00:06:30;3.90;99.90
10316;DHT22;5203;48.976;8.306;2023-02-14T00:09:00;3.90;99.90
10316;DHT22;5203;48.976;8.306;2023-02-14T00:11:26;3.80;99.90
10316;DHT22;5203;48.976;8.306;2023-02-14T00:13:51;3.90;99.90
10316;DHT22;5203;48.976;8.306;2023-02-14T00:16:36;3.90;99.90
10316;DHT22;5203;48.976;8.306;2023-02-14T00:19:01;3.80;99.90
10316;DHT22;5203;48.976;8.306;2023-02-14T00:21:27;3.80;99.90
10316;DHT22;5203;48.976;8.306;2023-02-14T00:23:53;3.70;99.90
10316;DHT22;5203;48.976;8.306;2023-02-14T00:26:18;3.80;99.90
10316;DHT22;5203;48.976;8.306;2023-02-14T00:28:44;3.90;99.90
10316;DHT22;5203;48.976;8.306;2023-02-14T00:31:10;3.60;99.90
10316;DHT22;5203;48.976;8.306;2023-02-14T00:33:36;3.60;99.90
10316;DHT22;5203;48.976;8.306;2023-02-14T00:36:03;3.30;99.90
10316;DHT22;5203;48.976;8.306;2023-02-14T00:38:29;2.90;99.90
10316;DHT22;5203;48.976;8.306;2023-02-14T00:40:55;2.90;99.90
10316;DHT22;5203;48.976;8.306;2023-02-14T00:43:20;2.90;99.90
10316;DHT22;5203;48.976;8.306;2023-02-14T00:45:46;3.20;99.90
10316;DHT22;5203;48.976;8.306;2023-02-14T00:48:11;3.40;99.90
10316;DHT22;5203;48.976;8.306;2023-02-14T00:50:37;3.60;99.90
10316;DHT22;5203;48.976;8.306;2023-02-14T00:53:02;3.70;99.90
10316;DHT22;5203;48.976;8.306;2023-02-14T00:55:28;3.80;99.90
10316;DHT22;5203;48.976;8.306;2023-02-14T00:57:54;3.90;99.90
10316;DHT22;5203;48.976;8.306;2023-02-14T01:00:20;3.90;99.90
10316;DHT22;5203;48.976;8.306;2023-02-14T01:02:46;3.60;99.90
10316;DHT22;5203;48.976;8.306;2023-02-14T01:05:12;3.70;99.90
10316;DHT22;5203;48.976;8.306;2023-02-14T01:07:37;3.80;99.90
10316;DHT22;5203;48.976;8.306;2023-02-14T01:10:03;3.90;99.90
10316;DHT22;5203;48.976;8.306;2023-02-14T01:12:29;3.90;99.90
10316;DHT22;5203;48.976;8.306;2023-02-14T01:14:55;3.90;99.90
10316;DHT22;5203;48.976;8.306;2023-02-14T01:17:21;4.00;99.90
10316;DHT22;5203;48.976;8.306;2023-02-14T01:19:51;4.00;99.90
10316;DHT22;5203;48.976;8.306;2023-02-14T01:22:16;3.80;99.90
10316;DHT22;5203;48.976;8.306;2023-02-14T01:24:42;3.70;99.90
10316;DHT22;5203;48.976;8.306;2023-02-14T01:27:08;3.70;99.90
10316;DHT22;5203;48.976;8.306;2023-02-14T01:29:33;3.60;99.90
10316;DHT22;5203;48.976;8.306;2023-02-14T01:31:59;3.60;99.90
10316;DHT22;5203;48.976;8.306;2023-02-14T01:34:24;3.50;99.90
10316;DHT22;5203;48.976;8.306;2023-02-14T01:36:50;3.50;99.90
10316;DHT22;5203;48.976;8.306;2023-02-14T01:39:16;3.50;99.90
10316;DHT22;5203;48.976;8.306;2023-02-14T01:41:44;3.60;99.90
10316;DHT22;5203;48.976;8.306;2023-02-14T01:46:39;3.70;99.90
10316;DHT22;5203;48.976;8.306;2023-02-14T01:49:15;3.70;99.90
10316;DHT22;5203;48.976;8.306;2023-02-14T01:51:54;3.80;99.90
10316;DHT22;5203;48.976;8.306;2023-02-14T01:54:23;3.80;99.90
10316;DHT22;5203;48.976;8.306;2023-02-14T01:56:53;3.80;99.90
10316;DHT22;5203;48.976;8.306;2023-02-14T01:59:23;3.90;99.90
10316;DHT22;5203;48.976;8.306;2023-02-14T02:01:51;3.70;99.90
10316;DHT22;5203;48.976;8.306;2023-02-14T02:04:36;3.80;99.90
10316;DHT22;5203;48.976;8.306;2023-02-14T02:07:06;3.90;99.90
10316;DHT22;5203;48.976;8.306;2023-02-14T02:09:39;3.90;99.90
10316;DHT22;5203;48.976;8.306;2023-02-14T02:12:08;3.80;99.90
10316;DHT22;5203;48.976;8.306;2023-02-14T02:14:34;3.70;99.90
10316;DHT22;5203;48.976;8.306;2023-02-14T02:17:09;3.50;99.90
10316;DHT22;5203;48.976;8.306;2023-02-14T02:36:41;3.10;99.90
10316;DHT22;5203;48.976;8.306;2023-02-14T02:42:09;3.30;99.90
10316;DHT22;5203;48.976;8.306;2023-02-14T02:47:33;3.30;99.90
10316;DHT22;5203;48.976;8.306;2023-02-14T02:50:05;3.50;99.90
10316;DHT22;5203;48.976;8.306;2023-02-14T02:58:26;3.20;99.90
10316;DHT22;5203;48.976;8.306;2023-02-14T03:00:53;3.40;99.90
10316;DHT22;5203;48.976;8.306;2023-02-14T03:03:24;3.40;99.90
10316;DHT22;5203;48.976;8.306;2023-02-14T03:06:09;3.30;99.90
10316;DHT22;5203;48.976;8.306;2023-02-14T03:08:34;3.20;99.90
10316;DHT22;5203;48.976;8.306;2023-02-14T03:11:01;3.30;99.90
10316;DHT22;5203;48.976;8.306;2023-02-14T03:27:09;2.50;99.90
10316;DHT22;5203;48.976;8.306;2023-02-14T03:37:45;2.60;99.90
10316;DHT22;5203;48.976;8.306;2023-02-14T03:40:22;2.50;99.90
10316;DHT22;5203;48.976;8.306;2023-02-14T03:43:06;2.40;99.90
10316;DHT22;5203;48.976;8.306;2023-02-14T03:48:43;2.50;99.90
10316;DHT22;5203;48.976;8.306;2023-02-14T03:51:12;2.60;99.90
10316;DHT22;5203;48.976;8.306;2023-02-14T03:53:42;2.60;99.90
10316;DHT22;5203;48.976;8.306;2023-02-14T03:58:49;2.50;99.90
10316;DHT22;5203;48.976;8.306;2023-02-14T04:01:20;2.60;99.90
10316;DHT22;5203;48.976;8.306;2023-02-14T04:03:48;2.60;99.90
10316;DHT22;5203;48.976;8.306;2023-02-14T04:06:17;2.80;99.90
10316;DHT22;5203;48.976;8.306;2023-02-14T04:08:43;3.00;99.90
10316;DHT22;5203;48.976;8.306;2023-02-14T04:11:09;3.00;99.90
10316;DHT22;5203;48.976;8.306;2023-02-14T04:13:36;3.00;99.90
10316;DHT22;5203;48.976;8.306;2023-02-14T04:16:02;3.10;99.90
10316;DHT22;5203;48.976;8.306;2023-02-14T04:18:27;3.10;99.90
10316;DHT22;5203;48.976;8.306;2023-02-14T04:21:11;3.20;99.90
10316;DHT22;5203;48.976;8.306;2023-02-14T04:23:37;3.10;99.90
10316;DHT22;5203;48.976;8.306;2023-02-14T04:26:03;3.00;99.90
10316;DHT22;5203;48.976;8.306;2023-02-14T04:28:30;3.00;99.90
10316;DHT22;5203;48.976;8.306;2023-02-14T04:30:55;2.90;99.90
10316;DHT22;5203;48.976;8.306;2023-02-14T04:33:21;2.90;99.90
10316;DHT22;5203;48.976;8.306;2023-02-14T04:35:47;3.00;99.90
10316;DHT22;5203;48.976;8.306;2023-02-14T04:38:13;3.00;99.90
10316;DHT22;5203;48.976;8.306;2023-02-14T04:40:38;2.90;99.90
10316;DHT22;5203;48.976;8.306;2023-02-14T04:43:04;2.90;99.90
10316;DHT22;5203;48.976;8.306;2023-02-14T04:45:31;2.90;99.90
10316;DHT22;5203;48.976;8.306;2023-02-14T04:47:57;3.00;99.90
10316;DHT22;5203;48.976;8.306;2023-02-14T04:50:23;2.90;99.90
10316;DHT22;5203;48.976;8.306;2023-02-14T04:52:50;2.80;99.90
10316;DHT22;5203;48.976;8.306;2023-02-14T04:55:16;2.60;99.90
10316;DHT22;5203;48.976;8.306;2023-02-14T04:57:42;2.50;99.90
10316;DHT22;5203;48.976;8.306;2023-02-14T05:00:08;2.50;99.90
10316;DHT22;5203;48.976;8.306;2023-02-14T05:02:34;2.40;99.90
10316;DHT22;5203;48.976;8.306;2023-02-14T05:05:00;2.20;99.90
10316;DHT22;5203;48.976;8.306;2023-02-14T05:07:25;2.00;99.90
10316;DHT22;5203;48.976;8.306;2023-02-14T05:09:51;1.90;99.90
10316;DHT22;5203;48.976;8.306;2023-02-14T05:12:17;2.10;99.90
10316;DHT22;5203;48.976;8.306;2023-02-14T05:14:42;2.20;99.90
10316;DHT22;5203;48.976;8.306;2023-02-14T05:17:08;2.10;99.90
10316;DHT22;5203;48.976;8.306;2023-02-14T05:19:33;2.20;99.90
10316;DHT22;5203;48.976;8.306;2023-02-14T05:21:59;2.30;99.90
10316;DHT22;5203;48.976;8.306;2023-02-14T05:24:25;2.40;99.90
10316;DHT22;5203;48.976;8.306;2023-02-14T05:26:50;2.40;99.90
10316;DHT22;5203;48.976;8.306;2023-02-14T05:29:16;2.40;99.90
10316;DHT22;5203;48.976;8.306;2023-02-14T05:31:41;2.40;99.90
10316;DHT22;5203;48.976;8.306;2023-02-14T05:34:07;2.30;99.90
10316;DHT22;5203;48.976;8.306;2023-02-14T05:36:33;2.30;99.90
10316;DHT22;5203;48.976;8.306;2023-02-14T05:38:58;2.10;99.90
10316;DHT22;5203;48.976;8.306;2023-02-14T05:41:24;2.10;99.90
10316;DHT22;5203;48.976;8.306;2023-02-14T05:43:49;2.10;99.90
10316;DHT22;5203;48.976;8.306;2023-02-14T05:46:15;2.00;99.90
10316;DHT22;5203;48.976;8.306;2023-02-14T05:48:41;1.90;99.90
10316;DHT22;5203;48.976;8.306;2023-02-14T05:51:09;1.80;99.90
10316;DHT22;5203;48.976;8.306;2023-02-14T05:53:35;1.70;99.90
10316;DHT22;5203;48.976;8.306;2023-02-14T05:56:00;1.60;99.90
10316;DHT22;5203;48.976;8.306;2023-02-14T05:58:26;1.60;99.90
10316;DHT22;5203;48.976;8.306;2023-02-14T06:00:52;1.60;99.90
10316;DHT22;5203;48.976;8.306;2023-02-14T06:03:17;1.60;99.90
10316;DHT22;5203;48.976;8.306;2023-02-14T06:05:43;1.70;99.90
10316;DHT22;5203;48.976;8.306;2023-02-14T06:08:09;1.50;99.90
10316;DHT22;5203;48.976;8.306;2023-02-14T06:10:34;1.30;99.90
10316;DHT22;5203;48.976;8.306;2023-02-14T06:13:00;1.40;99.90
10316;DHT22;5203;48.976;8.306;2023-02-14T06:15:26;1.40;99.90
10316;DHT22;5203;48.976;8.306;2023-02-14T06:17:55;1.40;99.90
10316;DHT22;5203;48.976;8.306;2023-02-14T06:20:22;1.50;99.90
10316;DHT22;5203;48.976;8.306;2023-02-14T06:22:49;1.50;99.90
10316;DHT22;5203;48.976;8.306;2023-02-14T06:25:15;1.60;99.90
10316;DHT22;5203;48.976;8.306;2023-02-14T06:27:41;1.30;99.90
10316;DHT22;5203;48.976;8.306;2023-02-14T06:30:07;1.20;99.90
10316;DHT22;5203;48.976;8.306;2023-02-14T06:32:33;1.30;99.90
10316;DHT22;5203;48.976;8.306;2023-02-14T06:34:58;1.30;99.90
10316;DHT22;5203;48.976;8.306;2023-02-14T06:37:24;1.40;99.90
10316;DHT22;5203;48.976;8.306;2023-02-14T06:39:49;1.40;99.90
10316;DHT22;5203;48.976;8.306;2023-02-14T06:42:15;1.50;99.90
10316;DHT22;5203;48.976;8.306;2023-02-14T06:44:41;1.60;99.90
10316;DHT22;5203;48.976;8.306;2023-02-14T06:47:06;1.40;99.90
10316;DHT22;5203;48.976;8.306;2023-02-14T06:49:33;1.40;99.90
10316;DHT22;5203;48.976;8.306;2023-02-14T06:51:58;1.20;99.90
10316;DHT22;5203;48.976;8.306;2023-02-14T06:54:24;1.10;99.90
10316;DHT22;5203;48.976;8.306;2023-02-14T06:56:49;1.30;99.90
10316;DHT22;5203;48.976;8.306;2023-02-14T06:59:16;1.40;99.90
10316;DHT22;5203;48.976;8.306;2023-02-14T07:01:41;1.50;99.90
10316;DHT22;5203;48.976;8.306;2023-02-14T07:04:07;1.60;99.90
10316;DHT22;5203;48.976;8.306;2023-02-14T07:06:33;1.60;99.90
10316;DHT22;5203;48.976;8.306;2023-02-14T07:08:59;1.70;99.90
10316;DHT22;5203;48.976;8.306;2023-02-14T07:11:24;1.60;99.90
10316;DHT22;5203;48.976;8.306;2023-02-14T07:13:50;1.70;99.90
10316;DHT22;5203;48.976;8.306;2023-02-14T07:16:16;1.90;99.90
10316;DHT22;5203;48.976;8.306;2023-02-14T07:18:41;1.70;99.90
10316;DHT22;5203;48.976;8.306;2023-02-14T07:21:07;1.80;99.90
10316;DHT22;5203;48.976;8.306;2023-02-14T07:23:33;2.00;99.90
10316;DHT22;5203;48.976;8.306;2023-02-14T07:25:58;2.00;99.90
10316;DHT22;5203;48.976;8.306;2023-02-14T07:28:24;1.70;99.90
10316;DHT22;5203;48.976;8.306;2023-02-14T07:30:49;1.60;99.90
10316;DHT22;5203;48.976;8.306;2023-02-14T07:33:15;1.70;99.90
10316;DHT22;5203;48.976;8.306;2023-02-14T07:35:41;1.80;99.90
10316;DHT22;5203;48.976;8.306;2023-02-14T07:38:06;1.90;99.90
10316;DHT22;5203;48.976;8.306;2023-02-14T07:40:32;2.00;99.90
10316;DHT22;5203;48.976;8.306;2023-02-14T07:42:58;2.20;99.90
10316;DHT22;5203;48.976;8.306;2023-02-14T07:45:25;2.00;99.90
10316;DHT22;5203;48.976;8.306;2023-02-14T07:47:53;2.20;99.90
10316;DHT22;5203;48.976;8.306;2023-02-14T07:50:20;2.30;99.90
10316;DHT22;5203;48.976;8.306;2023-02-14T07:52:46;2.50;99.90
10316;DHT22;5203;48.976;8.306;2023-02-14T07:55:13;2.20;98.40
10316;DHT22;5203;48.976;8.306;2023-02-14T07:57:38;2.00;99.90
10316;DHT22;5203;48.976;8.306;2023-02-14T08:00:05;1.90;99.90
10316;DHT22;5203;48.976;8.306;2023-02-14T08:02:31;1.80;99.90
10316;DHT22;5203;48.976;8.306;2023-02-14T08:04:57;1.80;99.90
10316;DHT22;5203;48.976;8.306;2023-02-14T08:07:22;1.90;99.90
10316;DHT22;5203;48.976;8.306;2023-02-14T08:09:48;1.90;99.90
10316;DHT22;5203;48.976;8.306;2023-02-14T08:12:13;2.00;99.90
10316;DHT22;5203;48.976;8.306;2023-02-14T08:14:57;2.00;99.90
10316;DHT22;5203;48.976;8.306;2023-02-14T08:17:43;2.10;99.90
10316;DHT22;5203;48.976;8.306;2023-02-14T08:20:09;2.20;99.90
10316;DHT22;5203;48.976;8.306;2023-02-14T08:22:35;2.10;99.90
10316;DHT22;5203;48.976;8.306;2023-02-14T08:25:00;1.90;99.90
10316;DHT22;5203;48.976;8.306;2023-02-14T08:27:26;1.80;99.90
10316;DHT22;5203;48.976;8.306;2023-02-14T08:29:51;1.90;99.90
10316;DHT22;5203;48.976;8.306;2023-02-14T08:32:17;1.90;99.90
10316;DHT22;5203;48.976;8.306;2023-02-14T08:34:45;1.90;99.90
10316;DHT22;5203;48.976;8.306;2023-02-14T08:37:11;1.70;99.90
10316;DHT22;5203;48.976;8.306;2023-02-14T08:39:38;1.70;99.90
10316;DHT22;5203;48.976;8.306;2023-02-14T08:42:04;1.60;99.90
10316;DHT22;5203;48.976;8.306;2023-02-14T08:44:30;1.80;99.90
10316;DHT22;5203;48.976;8.306;2023-02-14T08:46:55;2.00;99.90
10316;DHT22;5203;48.976;8.306;2023-02-14T08:49:21;1.80;99.90
10316;DHT22;5203;48.976;8.306;2023-02-14T08:51:47;1.80;99.90
10316;DHT22;5203;48.976;8.306;2023-02-14T08:54:12;1.70;99.90
10316;DHT22;5203;48.976;8.306;2023-02-14T08:56:38;1.50;99.90
10316;DHT22;5203;48.976;8.306;2023-02-14T08:59:05;1.20;99.90
10316;DHT22;5203;48.976;8.306;2023-02-14T09:04:10;1.30;99.90
10316;DHT22;5203;48.976;8.306;2023-02-14T09:06:38;1.60;99.90
10316;DHT22;5203;48.976;8.306;2023-02-14T09:09:05;1.60;99.90
10316;DHT22;5203;48.976;8.306;2023-02-14T09:11:30;1.70;99.90
10316;DHT22;5203;48.976;8.306;2023-02-14T09:13:56;1.80;99.90
10316;DHT22;5203;48.976;8.306;2023-02-14T09:16:23;2.10;99.90
10316;DHT22;5203;48.976;8.306;2023-02-14T09:18:50;2.20;99.90
10316;DHT22;5203;48.976;8.306;2023-02-14T09:21:18;2.30;99.90
10316;DHT22;5203;48.976;8.306;2023-02-14T09:23:44;2.30;98.50
10316;DHT22;5203;48.976;8.306;2023-02-14T09:26:12;2.40;98.90
10316;DHT22;5203;48.976;8.306;2023-02-14T09:28:38;2.40;98.60
10316;DHT22;5203;48.976;8.306;2023-02-14T09:31:12;2.30;97.50
10316;DHT22;5203;48.976;8.306;2023-02-14T09:33:38;2.30;97.00
10316;DHT22;5203;48.976;8.306;2023-02-14T09:36:04;2.30;98.10
10316;DHT22;5203;48.976;8.306;2023-02-14T09:38:42;2.40;98.60
10316;DHT22;5203;48.976;8.306;2023-02-14T09:41:11;2.20;99.90
10316;DHT22;5203;48.976;8.306;2023-02-14T09:44:10;2.00;99.90
10316;DHT22;5203;48.976;8.306;2023-02-14T09:46:40;2.10;99.90
10316;DHT22;5203;48.976;8.306;2023-02-14T09:49:13;2.20;99.40
10316;DHT22;5203;48.976;8.306;2023-02-14T09:51:45;1.90;99.90
10316;DHT22;5203;48.976;8.306;2023-02-14T09:54:15;2.00;99.90
10316;DHT22;5203;48.976;8.306;2023-02-14T09:56:56;1.80;99.90
10316;DHT22;5203;48.976;8.306;2023-02-14T09:59:49;1.90;99.90
10316;DHT22;5203;48.976;8.306;2023-02-14T10:05:28;1.80;99.90
10316;DHT22;5203;48.976;8.306;2023-02-14T10:10:44;2.10;99.90
10316;DHT22;5203;48.976;8.306;2023-02-14T10:13:53;2.20;99.90
10316;DHT22;5203;48.976;8.306;2023-02-14T10:16:14;2.10;99.90
10316;DHT22;5203;48.976;8.306;2023-02-14T10:18:57;2.50;99.90
10316;DHT22;5203;48.976;8.306;2023-02-14T10:21:39;2.70;99.90
10316;DHT22;5203;48.976;8.306;2023-02-14T10:24:29;2.80;99.30
10316;DHT22;5203;48.976;8.306;2023-02-14T10:27:02;2.90;97.60
10316;DHT22;5203;48.976;8.306;2023-02-14T10:29:28;3.00;96.80
10316;DHT22;5203;48.976;8.306;2023-02-14T10:32:01;3.00;96.90
10316;DHT22;5203;48.976;8.306;2023-02-14T10:45:26;2.90;95.80
10316;DHT22;5203;48.976;8.306;2023-02-14T10:48:04;2.80;98.40
10316;DHT22;5203;48.976;8.306;2023-02-14T10:53:30;2.90;97.40
10316;DHT22;5203;48.976;8.306;2023-02-14T10:56:03;3.10;96.60
10316;DHT22;5203;48.976;8.306;2023-02-14T10:58:33;3.20;94.30
10316;DHT22;5203;48.976;8.306;2023-02-14T11:01:15;2.70;98.90
10316;DHT22;5203;48.976;8.306;2023-02-14T11:03:53;2.80;98.90
10316;DHT22;5203;48.976;8.306;2023-02-14T11:06:19;2.90;98.10
10316;DHT22;5203;48.976;8.306;2023-02-14T11:08:45;3.00;97.20
10316;DHT22;5203;48.976;8.306;2023-02-14T11:11:23;3.10;96.10
10316;DHT22;5203;48.976;8.306;2023-02-14T11:13:50;3.30;95.40
10316;DHT22;5203;48.976;8.306;2023-02-14T11:16:29;3.20;95.70
10316;DHT22;5203;48.976;8.306;2023-02-14T11:19:25;3.40;95.60
10316;DHT22;5203;48.976;8.306;2023-02-14T11:21:53;3.30;95.40
10316;DHT22;5203;48.976;8.306;2023-02-14T11:26:52;3.30;97.00
10316;DHT22;5203;48.976;8.306;2023-02-14T11:34:41;3.30;96.10
10316;DHT22;5203;48.976;8.306;2023-02-14T11:39:53;3.40;96.00
10316;DHT22;5203;48.976;8.306;2023-02-14T11:42:39;3.60;94.80
10316;DHT22;5203;48.976;8.306;2023-02-14T11:45:06;3.70;93.70
10316;DHT22;5203;48.976;8.306;2023-02-14T11:47:35;3.60;95.10
10316;DHT22;5203;48.976;8.306;2023-02-14T11:50:21;3.60;95.50
10316;DHT22;5203;48.976;8.306;2023-02-14T11:52:53;3.70;95.60
10316;DHT22;5203;48.976;8.306;2023-02-14T11:55:26;3.80;95.00
10316;DHT22;5203;48.976;8.306;2023-02-14T11:57:53;3.80;95.50
10316;DHT22;5203;48.976;8.306;2023-02-14T12:00:20;3.90;94.10
10316;DHT22;5203;48.976;8.306;2023-02-14T12:02:50;3.80;93.20
10316;DHT22;5203;48.976;8.306;2023-02-14T12:05:25;3.80;94.40
10316;DHT22;5203;48.976;8.306;2023-02-14T12:08:11;3.80;94.00
10316;DHT22;5203;48.976;8.306;2023-02-14T12:10:38;3.80;94.90
10316;DHT22;5203;48.976;8.306;2023-02-14T12:23:39;3.80;96.10
10316;DHT22;5203;48.976;8.306;2023-02-14T12:26:23;4.00;96.10
10316;DHT22;5203;48.976;8.306;2023-02-14T12:29:01;3.90;95.80
10316;DHT22;5203;48.976;8.306;2023-02-14T12:31:30;3.80;96.20
10316;DHT22;5203;48.976;8.306;2023-02-14T12:33:56;3.90;97.50
10316;DHT22;5203;48.976;8.306;2023-02-14T12:45:19;4.00;94.20
10316;DHT22;5203;48.976;8.306;2023-02-14T12:51:15;4.20;95.20
10316;DHT22;5203;48.976;8.306;2023-02-14T13:12:37;5.30;88.00
10316;DHT22;5203;48.976;8.306;2023-02-14T13:17:39;5.10;88.60
10316;DHT22;5203;48.976;8.306;2023-02-14T13:23:07;5.00;90.00
10316;DHT22;5203;48.976;8.306;2023-02-14T13:25:48;5.10;90.00
10316;DHT22;5203;48.976;8.306;2023-02-14T13:28:16;5.10;90.70
10316;DHT22;5203;48.976;8.306;2023-02-14T13:30:42;4.90;91.80
10316;DHT22;5203;48.976;8.306;2023-02-14T13:36:05;4.90;93.00
10316;DHT22;5203;48.976;8.306;2023-02-14T13:38:41;5.10;91.90
10316;DHT22;5203;48.976;8.306;2023-02-14T13:41:07;5.30;90.40
10316;DHT22;5203;48.976;8.306;2023-02-14T13:44:03;5.30;90.10
10316;DHT22;5203;48.976;8.306;2023-02-14T13:51:50;5.70;87.20
10316;DHT22;5203;48.976;8.306;2023-02-14T13:54:43;6.20;84.50
10316;DHT22;5203;48.976;8.306;2023-02-14T13:57:42;6.60;81.10
10316;DHT22;5203;48.976;8.306;2023-02-14T14:10:53;8.20;72.30
10316;DHT22;5203;48.976;8.306;2023-02-14T14:21:31;9.00;69.90
10316;DHT22;5203;48.976;8.306;2023-02-14T14:31:56;10.30;63.60
10316;DHT22;5203;48.976;8.306;2023-02-14T14:34:27;10.80;62.60
10316;DHT22;5203;48.976;8.306;2023-02-14T14:37:13;11.10;60.70
10316;DHT22;5203;48.976;8.306;2023-02-14T14:39:40;11.10;59.10
10316;DHT22;5203;48.976;8.306;2023-02-14T14:42:13;11.20;59.40
10316;DHT22;5203;48.976;8.306;2023-02-14T14:45:18;11.20;59.40
10316;DHT22;5203;48.976;8.306;2023-02-14T14:47:41;11.50;59.00
10316;DHT22;5203;48.976;8.306;2023-02-14T14:50:15;11.40;58.20
10316;DHT22;5203;48.976;8.306;2023-02-14T14:52:46;11.10;59.00
10316;DHT22;5203;48.976;8.306;2023-02-14T14:55:19;11.00;59.80
10316;DHT22;5203;48.976;8.306;2023-02-14T14:57:51;10.90;60.20
10316;DHT22;5203;48.976;8.306;2023-02-14T15:00:32;10.80;60.60
10316;DHT22;5203;48.976;8.306;2023-02-14T15:05:39;10.90;61.20
10316;DHT22;5203;48.976;8.306;2023-02-14T15:10:55;11.00;59.80
10316;DHT22;5203;48.976;8.306;2023-02-14T15:13:46;10.60;60.70
10316;DHT22;5203;48.976;8.306;2023-02-14T15:18:56;10.40;62.20
10316;DHT22;5203;48.976;8.306;2023-02-14T15:21:23;10.60;61.70
10316;DHT22;5203;48.976;8.306;2023-02-14T15:23:50;10.90;61.00
10316;DHT22;5203;48.976;8.306;2023-02-14T15:26:30;10.90;60.50
10316;DHT22;5203;48.976;8.306;2023-02-14T15:29:03;10.70;61.00
10316;DHT22;5203;48.976;8.306;2023-02-14T15:31:38;10.80;60.80
10316;DHT22;5203;48.976;8.306;2023-02-14T15:34:05;10.90;61.00
10316;DHT22;5203;48.976;8.306;2023-02-14T15:36:33;10.70;61.70
10316;DHT22;5203;48.976;8.306;2023-02-14T15:39:02;10.50;62.60
10316;DHT22;5203;48.976;8.306;2023-02-14T15:41:29;10.50;63.00
10316;DHT22;5203;48.976;8.306;2023-02-14T15:43:56;10.30;62.90
10316;DHT22;5203;48.976;8.306;2023-02-14T15:46:26;10.00;64.30
10316;DHT22;5203;48.976;8.306;2023-02-14T15:48:58;10.00;64.60
10316;DHT22;5203;48.976;8.306;2023-02-14T15:51:28;9.90;65.10
10316;DHT22;5203;48.976;8.306;2023-02-14T15:53:58;9.70;66.10
10316;DHT22;5203;48.976;8.306;2023-02-14T15:56:30;9.50;67.40
10316;DHT22;5203;48.976;8.306;2023-02-14T15:59:20;9.40;67.90
10316;DHT22;5203;48.976;8.306;2023-02-14T16:01:56;9.40;68.00
10316;DHT22;5203;48.976;8.306;2023-02-14T16:04:25;8.90;69.80
10316;DHT22;5203;48.976;8.306;2023-02-14T16:09:48;8.60;71.90
10316;DHT22;5203;48.976;8.306;2023-02-14T16:17:34;8.30;73.50
10316;DHT22;5203;48.976;8.306;2023-02-14T16:20:28;8.20;73.80
10316;DHT22;5203;48.976;8.306;2023-02-14T16:23:20;8.10;74.40
10316;DHT22;5203;48.976;8.306;2023-02-14T16:25:47;8.00;74.80
10316;DHT22;5203;48.976;8.306;2023-02-14T16:28:13;7.80;75.60
10316;DHT22;5203;48.976;8.306;2023-02-14T16:30:40;7.80;75.70
10316;DHT22;5203;48.976;8.306;2023-02-14T16:33:15;7.60;76.30
10316;DHT22;5203;48.976;8.306;2023-02-14T16:35:42;7.40;77.40
10316;DHT22;5203;48.976;8.306;2023-02-14T16:38:12;7.20;79.10
10316;DHT22;5203;48.976;8.306;2023-02-14T16:40:42;7.00;80.90
10316;DHT22;5203;48.976;8.306;2023-02-14T16:43:17;6.90;81.10
10316;DHT22;5203;48.976;8.306;2023-02-14T16:45:44;6.90;81.20
10316;DHT22;5203;48.976;8.306;2023-02-14T16:48:09;6.70;81.80
10316;DHT22;5203;48.976;8.306;2023-02-14T16:50:37;6.70;81.40
10316;DHT22;5203;48.976;8.306;2023-02-14T16:53:06;6.60;81.70
10316;DHT22;5203;48.976;8.306;2023-02-14T16:55:35;6.60;82.20
10316;DHT22;5203;48.976;8.306;2023-02-14T16:58:01;6.60;81.60
10316;DHT22;5203;48.976;8.306;2023-02-14T17:00:27;6.60;81.70
10316;DHT22;5203;48.976;8.306;2023-02-14T17:02:53;6.50;82.20
10316;DHT22;5203;48.976;8.306;2023-02-14T17:05:30;6.30;82.90
10316;DHT22;5203;48.976;8.306;2023-02-14T17:07:57;6.40;82.20
10316;DHT22;5203;48.976;8.306;2023-02-14T17:10:23;6.30;82.60
10316;DHT22;5203;48.976;8.306;2023-02-14T17:12:49;6.20;82.50
10316;DHT22;5203;48.976;8.306;2023-02-14T17:15:18;6.20;82.50
10316;DHT22;5203;48.976;8.306;2023-02-14T17:17:47;6.10;82.40
10316;DHT22;5203;48.976;8.306;2023-02-14T17:20:13;6.00;82.70
10316;DHT22;5203;48.976;8.306;2023-02-14T17:22:39;6.10;81.80
10316;DHT22;5203;48.976;8.306;2023-02-14T17:25:07;6.00;81.90
10316;DHT22;5203;48.976;8.306;2023-02-14T17:27:33;6.00;81.70
10316;DHT22;5203;48.976;8.306;2023-02-14T17:29:59;6.00;81.70
10316;DHT22;5203;48.976;8.306;2023-02-14T17:32:25;6.00;81.60
10316;DHT22;5203;48.976;8.306;2023-02-14T17:34:52;5.90;81.90
10316;DHT22;5203;48.976;8.306;2023-02-14T17:37:18;5.90;81.50
10316;DHT22;5203;48.976;8.306;2023-02-14T17:39:44;5.80;81.20
10316;DHT22;5203;48.976;8.306;2023-02-14T17:42:10;5.80;81.70
10316;DHT22;5203;48.976;8.306;2023-02-14T17:44:35;5.70;82.10
10316;DHT22;5203;48.976;8.306;2023-02-14T17:47:05;5.60;82.40
10316;DHT22;5203;48.976;8.306;2023-02-14T17:49:31;5.60;82.60
10316;DHT22;5203;48.976;8.306;2023-02-14T17:51:57;5.50;82.80
10316;DHT22;5203;48.976;8.306;2023-02-14T17:54:23;5.50;82.60
10316;DHT22;5203;48.976;8.306;2023-02-14T17:56:49;5.50;82.90
10316;DHT22;5203;48.976;8.306;2023-02-14T17:59:14;5.50;82.20
10316;DHT22;5203;48.976;8.306;2023-02-14T18:01:40;5.40;81.80
10316;DHT22;5203;48.976;8.306;2023-02-14T18:04:06;5.30;82.30
10316;DHT22;5203;48.976;8.306;2023-02-14T18:06:32;5.30;82.20
10316;DHT22;5203;48.976;8.306;2023-02-14T18:08:58;5.30;82.30
10316;DHT22;5203;48.976;8.306;2023-02-14T18:11:25;5.20;82.60
10316;DHT22;5203;48.976;8.306;2023-02-14T18:13:53;5.10;83.70
10316;DHT22;5203;48.976;8.306;2023-02-14T18:16:19;5.10;83.60
10316;DHT22;5203;48.976;8.306;2023-02-14T18:18:46;5.00;84.40
10316;DHT22;5203;48.976;8.306;2023-02-14T18:21:13;5.00;84.10
10316;DHT22;5203;48.976;8.306;2023-02-14T18:23:39;5.00;83.90
10316;DHT22;5203;48.976;8.306;2023-02-14T18:26:07;5.00;83.30
10316;DHT22;5203;48.976;8.306;2023-02-14T18:28:34;5.00;82.60
10316;DHT22;5203;48.976;8.306;2023-02-14T18:31:09;4.90;82.50
10316;DHT22;5203;48.976;8.306;2023-02-14T18:33:35;4.90;82.60
10316;DHT22;5203;48.976;8.306;2023-02-14T18:36:05;4.80;83.50
10316;DHT22;5203;48.976;8.306;2023-02-14T18:38:32;4.80;82.40
10316;DHT22;5203;48.976;8.306;2023-02-14T18:41:02;4.70;82.30
10316;DHT22;5203;48.976;8.306;2023-02-14T18:43:27;4.70;82.70
10316;DHT22;5203;48.976;8.306;2023-02-14T18:45:53;4.70;82.60
10316;DHT22;5203;48.976;8.306;2023-02-14T18:48:19;4.70;82.20
10316;DHT22;5203;48.976;8.306;2023-02-14T18:50:44;4.60;81.50
10316;DHT22;5203;48.976;8.306;2023-02-14T18:53:10;4.50;82.70
10316;DHT22;5203;48.976;8.306;2023-02-14T18:55:36;4.50;82.70
10316;DHT22;5203;48.976;8.306;2023-02-14T18:58:02;4.50;82.00
10316;DHT22;5203;48.976;8.306;2023-02-14T19:00:28;4.60;82.20
10316;DHT22;5203;48.976;8.306;2023-02-14T19:02:57;4.50;82.00
10316;DHT22;5203;48.976;8.306;2023-02-14T19:05:23;4.40;81.30
10316;DHT22;5203;48.976;8.306;2023-02-14T19:07:59;4.40;82.30
10316;DHT22;5203;48.976;8.306;2023-02-14T19:10:25;4.40;82.50
10316;DHT22;5203;48.976;8.306;2023-02-14T19:12:50;4.40;83.00
10316;DHT22;5203;48.976;8.306;2023-02-14T19:15:16;4.30;82.70
10316;DHT22;5203;48.976;8.306;2023-02-14T19:17:44;4.30;82.50
10316;DHT22;5203;48.976;8.306;2023-02-14T19:20:11;4.20;83.50
10316;DHT22;5203;48.976;8.306;2023-02-14T19:22:38;4.10;82.90